createdAt,value
2022-08-07T00:01:43.276Z,4.93
2022-08-07T00:03:52.190Z,5.20
2022-08-07T00:06:29.588Z,4.28
2022-08-07T00:09:16.296Z,6.63
2022-08-07T00:11:53.850Z,4.15
2022-08-07T00:14:25.352Z,4.07
2022-08-07T00:16:57.253Z,4.50
2022-08-07T00:19:29.109Z,5.00
2022-08-07T00:22:11.398Z,4.30
2022-08-07T00:24:39.261Z,4.22
2022-08-07T00:27:07.237Z,4.37
2022-08-07T00:29:37.149Z,4.50
2022-08-07T00:32:05.991Z,4.95
2022-08-07T00:34:35.584Z,5.93
2022-08-07T00:37:02.908Z,4.97
2022-08-07T00:39:32.389Z,4.83
2022-08-07T00:42:02.121Z,4.65
2022-08-07T00:44:33.090Z,4.53
2022-08-07T00:47:00.711Z,5.07
2022-08-07T00:50:19.727Z,4.68
2022-08-07T00:52:17.638Z,4.97
2022-08-07T00:54:47.094Z,5.28
2022-08-07T00:57:22.009Z,6.60
2022-08-07T00:59:49.730Z,4.85
2022-08-07T01:02:28.419Z,4.25
2022-08-07T01:04:58.611Z,5.43
2022-08-07T01:07:27.572Z,4.28
2022-08-07T01:10:04.880Z,4.68
2022-08-07T01:12:38.698Z,4.30
2022-08-07T01:15:06.358Z,5.30
2022-08-07T01:17:34.030Z,4.23
2022-08-07T01:20:06.628Z,5.80
2022-08-07T01:22:35.761Z,4.68
2022-08-07T01:25:39.881Z,5.43
2022-08-07T01:27:51.618Z,5.70
2022-08-07T01:30:18.856Z,4.83
2022-08-07T01:32:46.325Z,4.63
2022-08-07T01:35:14.861Z,4.45
2022-08-07T01:37:44.466Z,4.93
2022-08-07T01:40:15.441Z,6.00
2022-08-07T01:42:57.202Z,4.47
2022-08-07T01:45:36.241Z,4.45
2022-08-07T01:48:19.203Z,4.90
2022-08-07T01:50:51.089Z,4.05
2022-08-07T01:54:11.732Z,4.78
2022-08-07T01:56:13.610Z,6.33
2022-08-07T01:58:45.244Z,4.53
2022-08-07T02:01:59.401Z,6.68
2022-08-07T02:04:19.354Z,8.20
2022-08-07T02:06:46.913Z,5.88
2022-08-07T02:09:43.604Z,6.43
2022-08-07T02:12:17.738Z,7.22
2022-08-07T02:14:46.387Z,4.60
2022-08-07T02:17:24.764Z,4.70
2022-08-07T02:20:07.688Z,4.75
2022-08-07T02:22:41.098Z,5.80
2022-08-07T02:25:14.099Z,4.80
2022-08-07T02:27:51.207Z,6.10
2022-08-07T02:30:19.755Z,4.82
2022-08-07T02:33:00.622Z,5.53
2022-08-07T02:36:27.038Z,4.63
2022-08-07T02:38:32.249Z,5.60
2022-08-07T02:41:00.642Z,5.35
2022-08-07T02:43:28.451Z,5.97
2022-08-07T02:46:01.878Z,5.53
2022-08-07T02:48:30.216Z,5.77
2022-08-07T02:50:59.235Z,5.95
2022-08-07T02:53:29.312Z,5.35
2022-08-07T02:56:03.153Z,6.10
2022-08-07T02:58:33.445Z,5.15
2022-08-07T03:01:02.529Z,4.70
2022-08-07T03:03:49.072Z,6.38
2022-08-07T03:06:26.173Z,4.82
2022-08-07T03:09:01.611Z,5.03
2022-08-07T03:11:29.158Z,4.70
2022-08-07T03:14:01.889Z,5.03
2022-08-07T03:16:30.468Z,5.60
2022-08-07T03:18:57.996Z,7.05
2022-08-07T03:21:25.478Z,5.30
2022-08-07T03:24:20.658Z,5.15
2022-08-07T03:26:58.444Z,6.60
2022-08-07T03:29:28.115Z,4.78
2022-08-07T03:31:56.002Z,5.18
2022-08-07T03:34:27.173Z,5.53
2022-08-07T03:36:54.998Z,5.15
2022-08-07T03:39:46.084Z,5.93
2022-08-07T03:42:13.410Z,5.28
2022-08-07T03:44:40.906Z,9.00
2022-08-07T03:47:11.069Z,4.80
2022-08-07T03:49:41.879Z,4.65
2022-08-07T03:52:22.767Z,4.83
2022-08-07T03:54:54.198Z,4.93
2022-08-07T03:58:32.443Z,5.70
2022-08-07T04:00:11.422Z,6.43
2022-08-07T04:02:41.248Z,5.50
2022-08-07T04:05:08.740Z,5.20
2022-08-07T04:07:42.910Z,5.85
2022-08-07T04:10:15.568Z,5.18
2022-08-07T04:12:47.263Z,5.80
2022-08-07T04:15:14.590Z,5.18
2022-08-07T04:18:31.964Z,5.13
2022-08-07T04:20:31.217Z,5.28
2022-08-07T04:23:06.212Z,6.47
2022-08-07T04:25:36.020Z,5.43
2022-08-07T04:28:08.702Z,5.10
2022-08-07T04:30:43.927Z,6.77
2022-08-07T04:33:23.284Z,5.78
2022-08-07T04:35:51.171Z,6.35
2022-08-07T04:38:20.930Z,5.65
2022-08-07T04:40:51.796Z,5.53
2022-08-07T04:43:21.742Z,7.23
2022-08-07T04:46:12.455Z,6.00
2022-08-07T04:49:02.106Z,5.57
2022-08-07T04:51:50.182Z,5.75
2022-08-07T04:54:22.660Z,5.75
2022-08-07T04:58:10.607Z,5.80
2022-08-07T05:00:14.528Z,6.68
2022-08-07T05:03:03.451Z,6.93
2022-08-07T05:05:53.255Z,5.72
2022-08-07T05:08:45.854Z,5.43
2022-08-07T05:11:26.286Z,4.90
2022-08-07T05:14:53.975Z,6.28
2022-08-07T05:16:47.567Z,6.60
2022-08-07T05:19:32.703Z,5.18
2022-08-07T05:22:10.074Z,5.18
2022-08-07T05:24:40.443Z,5.43
2022-08-07T05:28:01.987Z,6.95
2022-08-07T05:29:57.518Z,5.15
2022-08-07T05:32:26.536Z,6.03
2022-08-07T05:34:54.306Z,6.53
2022-08-07T05:37:25.147Z,5.43
2022-08-07T05:40:07.157Z,5.10
2022-08-07T05:42:40.299Z,6.38
2022-08-07T05:45:26.380Z,6.47
2022-08-07T05:48:02.017Z,6.03
2022-08-07T05:50:31.659Z,6.27
2022-08-07T05:53:00.354Z,4.75
2022-08-07T05:56:03.290Z,5.40
2022-08-07T05:58:16.719Z,4.70
2022-08-07T06:00:46.323Z,5.18
2022-08-07T06:03:20.202Z,4.70
2022-08-07T06:05:49.826Z,5.35
2022-08-07T06:08:30.902Z,7.85
2022-08-07T06:10:59.354Z,5.90
2022-08-07T06:14:10.915Z,5.25
2022-08-07T06:16:18.765Z,4.57
2022-08-07T06:18:51.910Z,4.78
2022-08-07T06:22:16.136Z,5.90
2022-08-07T06:24:46.080Z,4.80
2022-08-07T06:26:57.676Z,5.13
2022-08-07T06:29:28.627Z,4.77
2022-08-07T06:31:56.466Z,5.85
2022-08-07T06:34:29.710Z,6.53
2022-08-07T06:36:57.626Z,5.72
2022-08-07T06:40:15.755Z,5.30
2022-08-07T06:42:15.746Z,5.13
2022-08-07T06:44:43.337Z,5.70
2022-08-07T06:47:15.360Z,7.15
2022-08-07T06:49:52.322Z,5.28
2022-08-07T06:52:32.049Z,5.10
2022-08-07T06:55:33.772Z,5.70
2022-08-07T06:57:57.152Z,5.82
2022-08-07T07:00:24.888Z,4.88
2022-08-07T07:02:57.619Z,5.90
2022-08-07T07:06:05.247Z,5.05
2022-08-07T07:08:18.893Z,5.20
2022-08-07T07:10:56.780Z,6.28
2022-08-07T07:13:41.665Z,6.45
2022-08-07T07:16:27.181Z,7.28
2022-08-07T07:19:00.190Z,4.53
2022-08-07T07:22:05.172Z,4.53
2022-08-07T07:24:28.367Z,3.80
2022-08-07T07:26:57.580Z,5.88
2022-08-07T07:29:39.770Z,4.25
2022-08-07T07:32:15.133Z,5.35
2022-08-07T07:34:48.580Z,4.67
2022-08-07T07:37:44.228Z,4.07
2022-08-07T07:40:14.587Z,4.35
2022-08-07T07:42:43.329Z,3.90
2022-08-07T07:45:15.895Z,4.38
2022-08-07T07:47:52.704Z,6.10
2022-08-07T07:50:36.313Z,3.97
2022-08-07T07:53:20.335Z,4.40
2022-08-07T07:55:57.789Z,6.85
2022-08-07T07:58:30.119Z,4.80
2022-08-07T08:00:58.406Z,4.10
2022-08-07T08:04:06.268Z,4.82
2022-08-07T08:06:14.590Z,5.93
2022-08-07T08:08:42.863Z,4.40
2022-08-07T08:11:16.410Z,3.88
2022-08-07T08:13:57.855Z,5.87
2022-08-07T08:16:31.843Z,4.97
2022-08-07T08:19:14.102Z,5.32
2022-08-07T08:22:10.618Z,4.18
2022-08-07T08:25:18.945Z,4.22
2022-08-07T08:27:56.345Z,4.10
2022-08-07T08:30:28.422Z,5.57
2022-08-07T08:32:57.676Z,5.53
2022-08-07T08:35:28.795Z,4.53
2022-08-07T08:38:07.669Z,4.18
2022-08-07T08:40:39.551Z,4.17
2022-08-07T08:43:20.651Z,3.88
2022-08-07T08:46:08.117Z,4.88
2022-08-07T08:48:40.197Z,3.83
2022-08-07T08:51:14.258Z,4.10
2022-08-07T08:53:58.194Z,4.27
2022-08-07T08:56:28.446Z,4.22
2022-08-07T08:58:57.004Z,3.53
2022-08-07T09:01:40.070Z,4.32
2022-08-07T09:04:13.344Z,4.15
2022-08-07T09:06:59.438Z,3.87
2022-08-07T09:09:36.839Z,5.45
2022-08-07T09:12:20.135Z,3.60
2022-08-07T09:16:22.505Z,3.75
2022-08-07T09:18:22.561Z,5.10
2022-08-07T09:21:13.896Z,3.97
2022-08-07T09:24:30.925Z,5.00
2022-08-07T09:27:11.917Z,5.13
2022-08-07T09:30:05.651Z,3.92
2022-08-07T09:32:49.763Z,4.53
2022-08-07T09:36:04.273Z,5.27
2022-08-07T09:38:37.579Z,4.05
2022-08-07T09:41:08.624Z,4.90
2022-08-07T09:44:06.840Z,5.07
2022-08-07T09:47:52.127Z,4.68
2022-08-07T09:50:01.082Z,4.00
2022-08-07T09:52:37.883Z,4.30
2022-08-07T09:55:28.785Z,4.32
2022-08-07T09:58:09.825Z,4.45
2022-08-07T10:00:45.515Z,3.30
2022-08-07T10:04:05.400Z,3.47
2022-08-07T10:06:37.902Z,3.88
2022-08-07T10:09:34.237Z,4.60
2022-08-07T10:12:26.381Z,4.05
2022-08-07T10:15:06.399Z,3.72
2022-08-07T10:18:01.901Z,3.13
2022-08-07T10:20:32.987Z,4.05
2022-08-07T10:24:05.545Z,4.18
2022-08-07T10:26:14.765Z,3.22
2022-08-07T10:28:49.584Z,4.15
2022-08-07T10:31:38.494Z,5.73
2022-08-07T10:34:27.382Z,3.97
2022-08-07T10:37:18.286Z,3.38
2022-08-07T10:40:05.573Z,3.58
2022-08-07T10:42:36.305Z,4.03
2022-08-07T10:45:19.599Z,3.67
2022-08-07T10:48:11.190Z,3.45
2022-08-07T10:50:49.877Z,4.68
2022-08-07T10:53:21.440Z,3.70
2022-08-07T10:55:53.630Z,3.75
2022-08-07T10:58:33.117Z,3.53
2022-08-07T11:01:11.624Z,3.55
2022-08-07T11:03:54.983Z,3.97
2022-08-07T11:06:41.822Z,3.40
2022-08-07T11:10:09.073Z,3.20
2022-08-07T11:12:14.766Z,4.67
2022-08-07T11:15:17.224Z,3.92
2022-08-07T11:17:49.015Z,3.30
2022-08-07T11:20:31.067Z,3.35
2022-08-07T11:23:09.537Z,4.25
2022-08-07T11:25:50.147Z,4.30
2022-08-07T11:28:20.572Z,4.70
2022-08-07T11:30:57.098Z,3.72
2022-08-07T11:33:54.245Z,3.45
2022-08-07T11:36:31.202Z,3.78
2022-08-07T11:39:07.003Z,4.60
2022-08-07T11:42:01.472Z,3.30
2022-08-07T11:44:28.459Z,3.20
2022-08-07T11:47:16.022Z,3.92
2022-08-07T11:50:31.156Z,4.25
2022-08-07T11:53:05.113Z,3.13
2022-08-07T11:56:25.212Z,3.45
2022-08-07T11:58:49.919Z,3.78
2022-08-07T12:01:59.727Z,3.65
2022-08-07T12:04:46.910Z,3.58
2022-08-07T12:07:38.928Z,3.50
2022-08-07T12:10:09.546Z,4.25
2022-08-07T12:12:44.565Z,3.72
2022-08-07T12:15:17.448Z,4.38
2022-08-07T12:18:29.903Z,5.38
2022-08-07T12:21:15.007Z,4.20
2022-08-07T12:24:07.398Z,4.03
2022-08-07T12:26:49.694Z,3.78
2022-08-07T12:29:20.455Z,3.33
2022-08-07T12:32:15.349Z,3.95
2022-08-07T12:34:49.435Z,4.33
2022-08-07T12:37:23.630Z,3.88
2022-08-07T12:39:58.705Z,3.80
2022-08-07T12:42:28.610Z,3.63
2022-08-07T12:45:04.275Z,3.80
2022-08-07T12:47:40.503Z,4.20
2022-08-07T12:50:33.941Z,4.50
2022-08-07T12:53:17.659Z,4.53
2022-08-07T12:56:02.606Z,3.88
2022-08-07T12:58:35.471Z,3.90
2022-08-07T13:01:02.774Z,3.53
2022-08-07T13:03:59.332Z,4.85
2022-08-07T13:06:36.832Z,5.07
2022-08-07T13:10:19.500Z,5.07
2022-08-07T13:12:27.376Z,4.82
2022-08-07T13:15:10.167Z,5.63
2022-08-07T13:17:59.339Z,6.03
2022-08-07T13:20:31.554Z,5.60
2022-08-07T13:23:09.876Z,5.30
2022-08-07T13:26:04.571Z,5.78
2022-08-07T13:28:44.729Z,5.73
2022-08-07T13:31:18.184Z,5.55
2022-08-07T13:34:33.211Z,6.38
2022-08-07T13:36:42.787Z,7.30
2022-08-07T13:40:32.767Z,5.68
2022-08-07T13:42:18.897Z,5.73
2022-08-07T13:45:20.936Z,5.53
2022-08-07T13:48:08.488Z,7.60
2022-08-07T13:50:34.441Z,5.55
2022-08-07T13:53:19.506Z,5.93
2022-08-07T13:55:54.658Z,6.20
2022-08-07T13:58:56.067Z,4.90
2022-08-07T14:01:25.337Z,8.13
2022-08-07T14:04:07.699Z,6.78
2022-08-07T14:06:38.696Z,5.57
2022-08-07T14:09:06.853Z,5.53
2022-08-07T14:11:53.630Z,6.78
2022-08-07T14:14:30.634Z,5.45
2022-08-07T14:17:32.052Z,7.15
2022-08-07T14:20:42.412Z,7.47
2022-08-07T14:22:42.307Z,5.83
2022-08-07T14:25:13.943Z,6.85
2022-08-07T14:28:12.537Z,7.18
2022-08-07T14:30:34.478Z,5.72
2022-08-07T14:33:04.723Z,6.88
2022-08-07T14:35:44.511Z,6.13
2022-08-07T14:38:24.574Z,5.95
2022-08-07T14:41:12.486Z,6.32
2022-08-07T14:43:57.180Z,6.00
2022-08-07T14:46:32.079Z,5.35
2022-08-07T14:49:17.301Z,6.47
2022-08-07T14:52:02.856Z,8.57
2022-08-07T14:54:41.918Z,6.00
2022-08-07T14:57:19.487Z,6.15
2022-08-07T15:02:39.207Z,5.50
2022-08-07T15:05:20.262Z,4.70
2022-08-07T15:07:56.084Z,6.72
2022-08-07T15:10:29.677Z,4.57
2022-08-07T15:15:57.109Z,6.43
2022-08-07T15:18:41.595Z,4.78
2022-08-07T15:21:44.268Z,5.07
2022-08-07T15:25:13.406Z,8.52
2022-08-07T15:27:08.880Z,4.93
2022-08-07T15:30:08.905Z,7.00
2022-08-07T15:32:38.897Z,3.88
2022-08-07T15:35:06.951Z,5.43
2022-08-07T15:43:53.258Z,5.13
2022-08-07T15:46:31.760Z,5.13
2022-08-07T15:54:25.089Z,5.18
2022-08-07T15:56:53.798Z,5.67
2022-08-07T15:59:39.679Z,4.43
2022-08-07T16:02:15.165Z,5.07
2022-08-07T16:04:44.163Z,4.72
2022-08-07T16:08:31.823Z,5.68
2022-08-07T16:10:14.882Z,6.07
2022-08-07T16:13:04.833Z,5.50
2022-08-07T16:15:57.484Z,5.97
2022-08-07T16:18:50.907Z,6.25
2022-08-07T16:22:01.472Z,4.28
2022-08-07T16:24:52.718Z,5.47
2022-08-07T16:27:40.614Z,7.35
2022-08-07T16:30:31.725Z,6.28
2022-08-07T16:34:02.580Z,6.00
2022-08-07T16:36:04.322Z,5.90
2022-08-07T16:39:00.832Z,5.57
2022-08-07T16:41:53.951Z,4.68
2022-08-07T16:44:46.301Z,3.65
2022-08-07T16:50:39.322Z,5.78
2022-08-07T16:54:02.259Z,4.97
2022-08-07T16:56:26.635Z,4.45
2022-08-07T16:59:15.277Z,4.85
2022-08-07T17:02:03.242Z,4.82
2022-08-07T17:04:52.984Z,4.43
2022-08-07T17:07:51.656Z,4.17
2022-08-07T17:10:35.511Z,5.97
2022-08-07T17:13:22.858Z,6.03
2022-08-07T17:16:09.294Z,5.32
2022-08-07T17:18:55.298Z,6.22
2022-08-07T17:21:52.302Z,5.10
2022-08-07T17:24:36.295Z,4.70
2022-08-07T17:27:24.039Z,5.13
2022-08-07T17:30:14.989Z,6.55
2022-08-07T17:32:59.321Z,5.75
2022-08-07T17:35:51.604Z,4.23
2022-08-07T17:38:33.334Z,4.13
2022-08-07T17:42:02.295Z,5.82
2022-08-07T17:44:03.243Z,5.30
2022-08-07T17:46:40.309Z,4.78
2022-08-07T17:49:39.368Z,4.40
2022-08-07T17:52:18.948Z,4.43
2022-08-07T17:54:54.449Z,4.85
2022-08-07T17:57:22.730Z,4.43
2022-08-07T17:59:53.275Z,4.80
2022-08-07T18:02:27.818Z,5.30
2022-08-07T18:05:20.890Z,7.50
2022-08-07T18:08:23.959Z,5.88
2022-08-07T18:12:07.151Z,5.70
2022-08-07T18:14:01.933Z,6.18
2022-08-07T18:16:58.143Z,5.13
2022-08-07T18:21:05.945Z,5.70
2022-08-07T18:22:35.988Z,5.40
2022-08-07T18:25:23.992Z,5.18
2022-08-07T18:28:33.077Z,6.88
2022-08-07T18:31:05.524Z,6.40
2022-08-07T18:33:55.411Z,5.53
2022-08-07T18:36:41.715Z,7.15
2022-08-07T18:40:06.343Z,5.80
2022-08-07T18:42:16.618Z,5.25
2022-08-07T18:47:48.599Z,5.90
2022-08-07T18:50:43.842Z,6.05
2022-08-07T18:53:36.972Z,7.15
2022-08-07T18:56:13.364Z,5.47
2022-08-07T18:58:42.420Z,6.07
2022-08-07T19:02:32.811Z,6.80
2022-08-07T19:04:57.600Z,4.65
2022-08-07T19:07:51.654Z,4.70
2022-08-07T19:10:49.921Z,5.97
2022-08-07T19:13:23.893Z,4.83
2022-08-07T19:16:04.931Z,5.57
2022-08-07T19:18:55.706Z,6.93
2022-08-07T19:21:46.550Z,4.95
2022-08-07T19:24:31.001Z,6.65
2022-08-07T19:28:56.833Z,5.40
2022-08-07T19:31:03.913Z,6.45
2022-08-07T19:32:51.298Z,5.03
2022-08-07T19:35:22.631Z,5.60
2022-08-07T19:37:57.063Z,4.82
2022-08-07T19:40:31.491Z,6.63
2022-08-07T19:43:02.396Z,8.77
2022-08-07T19:46:07.875Z,6.32
2022-08-07T19:48:24.203Z,4.68
2022-08-07T19:50:53.549Z,5.50
2022-08-07T19:54:31.101Z,6.47
2022-08-07T19:57:51.292Z,6.32
2022-08-07T19:58:57.765Z,6.00
2022-08-07T20:01:56.996Z,7.20
2022-08-07T20:04:31.595Z,5.50
2022-08-07T20:07:09.147Z,6.40
2022-08-07T20:10:35.060Z,6.13
2022-08-07T20:12:34.617Z,7.07
2022-08-07T20:15:04.213Z,6.80
2022-08-07T20:17:38.712Z,6.13
2022-08-07T20:20:07.833Z,5.63
2022-08-07T20:22:37.835Z,5.32
2022-08-07T20:25:19.279Z,6.30
2022-08-07T20:27:58.166Z,7.47
2022-08-07T20:30:29.927Z,7.72
2022-08-07T20:32:58.674Z,7.40
2022-08-07T20:35:34.151Z,6.35
2022-08-07T20:38:06.214Z,6.43
2022-08-07T20:40:41.188Z,5.95
2022-08-07T20:43:19.349Z,7.18
2022-08-07T20:46:26.124Z,5.97
2022-08-07T20:48:39.459Z,7.53
2022-08-07T20:51:26.435Z,7.93
2022-08-07T20:54:09.362Z,6.10
2022-08-07T20:56:48.053Z,5.50
2022-08-07T21:00:04.766Z,8.27
2022-08-07T21:02:05.354Z,6.63
2022-08-07T21:04:49.331Z,7.13
2022-08-07T21:07:28.932Z,7.97
2022-08-07T21:10:00.409Z,7.05
2022-08-07T21:12:30.955Z,6.00
2022-08-07T21:15:00.988Z,6.85
2022-08-07T21:18:03.270Z,7.82
2022-08-07T21:20:26.508Z,6.65
2022-08-07T21:22:58.023Z,7.82
2022-08-07T21:25:43.595Z,8.23
2022-08-07T21:28:18.810Z,9.23
2022-08-07T21:31:31.441Z,7.10
2022-08-07T21:34:10.676Z,7.95
2022-08-07T21:36:50.075Z,6.18
2022-08-07T21:39:46.441Z,8.13
2022-08-07T21:42:42.289Z,7.55
2022-08-07T21:46:09.131Z,6.70
2022-08-07T21:48:27.964Z,7.65
2022-08-07T21:51:02.850Z,8.48
2022-08-07T21:53:53.082Z,6.93
2022-08-07T21:56:47.909Z,7.53
2022-08-07T21:59:31.434Z,7.03
2022-08-07T22:02:30.138Z,6.75
2022-08-07T22:04:59.798Z,7.00
2022-08-07T22:07:31.822Z,7.60
2022-08-07T22:10:18.796Z,6.88
2022-08-07T22:12:53.343Z,9.20
2022-08-07T22:16:39.825Z,8.00
2022-08-07T22:18:10.090Z,6.97
2022-08-07T22:20:45.023Z,8.63
2022-08-07T22:23:23.058Z,9.60
2022-08-07T22:26:06.023Z,7.82
2022-08-07T22:28:42.455Z,7.90
2022-08-07T22:31:45.710Z,8.95
2022-08-07T22:34:13.838Z,8.33
2022-08-07T22:36:40.939Z,10.25
2022-08-07T22:39:53.409Z,7.10
2022-08-07T22:42:25.806Z,7.85
2022-08-07T22:44:59.551Z,7.57
2022-08-07T22:47:52.184Z,7.73
2022-08-07T22:50:29.050Z,7.60
2022-08-07T22:53:06.505Z,8.13
2022-08-07T22:55:53.366Z,7.55
2022-08-07T22:58:21.329Z,8.45
2022-08-07T23:01:11.591Z,8.90
2022-08-07T23:04:01.223Z,9.15
2022-08-07T23:06:42.631Z,7.97
2022-08-07T23:10:04.206Z,7.85
2022-08-07T23:12:45.087Z,8.70
2022-08-07T23:16:04.367Z,8.90
2022-08-07T23:18:21.342Z,9.25
2022-08-07T23:20:53.051Z,7.32
2022-08-07T23:24:06.328Z,6.95
2022-08-07T23:26:13.970Z,8.07
2022-08-07T23:29:01.985Z,7.97
2022-08-07T23:32:50.264Z,8.43
2022-08-07T23:34:37.960Z,9.50
2022-08-07T23:37:25.599Z,8.20
2022-08-07T23:40:04.122Z,7.75
2022-08-07T23:42:53.370Z,8.17
2022-08-07T23:45:50.171Z,8.43
2022-08-07T23:48:27.646Z,8.52
2022-08-07T23:51:00.807Z,8.93
2022-08-07T23:53:51.576Z,8.38
2022-08-07T23:56:38.919Z,7.67
